Date,TemperatureHighF,TemperatureAvgF,TemperatureLowF,DewpointHighF,DewpointAvgF,DewpointLowF,HumidityHigh,HumidityAvg,HumidityLow,PressureMaxIn,PressureMinIn,WindSpeedMaxMPH,WindSpeedAvgMPH,GustSpeedMaxMPH,PrecipitationSumIn
2013-1-1,67.0,63.3,56.0,63.0,59.1,52.0,88,86,82,30.10,29.93,12,6,17,0.01
2013-1-2,67.0,57.2,49.0,63.0,51.3,44.0,88,81,66,30.12,29.92,9,5,21,0.00
2013-1-3,49.0,44.8,39.0,44.0,40.8,34.0,88,86,82,30.30,30.11,9,5,14,0.36
2013-1-4,57.0,45.6,36.0,41.0,35.1,31.0,82,68,44,30.36,30.27,7,2,13,0.02
2013-1-5,52.0,47.8,43.0,42.0,35.9,31.0,75,63,47,30.34,30.19,10,2,17,0.01
2013-1-6,56.0,51.0,48.0,45.0,41.5,39.0,81,71,55,30.24,30.13,7,2,14,0.01
2013-1-7,58.0,49.8,41.0,46.0,41.3,37.0,85,73,58,30.28,30.18,9,4,15,0.00
2013-1-8,62.0,55.2,48.0,57.0,49.2,41.0,85,81,72,30.24,30.15,8,2,13,0.00
2013-1-9,67.0,63.9,61.0,63.0,59.7,57.0,88,86,83,30.25,30.15,12,5,18,0.00
2013-1-10,66.0,62.9,60.0,62.0,59.3,56.0,89,88,87,30.25,30.11,18,9,25,0.31
2013-1-11,66.0,64.0,62.0,62.0,60.1,58.0,89,88,86,30.16,30.03,18,6,23,0.33
2013-1-12,66.0,64.7,62.0,63.0,61.2,59.0,89,89,88,30.11,29.99,11,7,14,0.02
2013-1-13,67.0,65.6,64.0,64.0,62.1,61.0,89,89,88,30.03,29.95,12,7,16,0.00
2013-1-14,67.0,66.1,65.0,64.0,63.0,62.0,89,89,88,30.09,30.01,11,5,13,0.00
2013-1-15,69.0,67.1,66.0,66.0,63.7,62.0,89,89,87,30.03,29.93,11,6,17,0.16
2013-1-16,70.0,64.6,52.0,66.0,60.7,48.0,88,87,86,29.97,29.88,14,6,22,0.40
2013-1-17,52.0,44.7,40.0,49.0,39.5,35.0,88,82,74,30.24,29.96,14,9,26,0.13
2013-1-18,62.0,47.6,38.0,39.0,36.8,34.0,86,68,41,30.46,30.24,9,3,19,0.01
2013-1-19,62.0,50.8,39.0,49.0,41.4,33.0,84,71,59,30.37,30.20,4,1,11,0.00
2013-1-20,63.0,54.9,47.0,51.0,47.1,43.0,88,76,57,30.23,30.09,8,2,12,0.00
2013-1-21,65.0,55.0,47.0,51.0,45.6,42.0,89,72,47,30.17,30.07,7,2,11,0.00
2013-1-22,60.0,50.4,43.0,43.0,35.7,30.0,77,58,38,30.32,30.15,6,2,13,0.00
2013-1-23,60.0,50.8,40.0,52.0,42.4,33.0,89,73,51,30.39,30.27,7,2,13,0.00
2013-1-24,67.0,58.0,49.0,58.0,52.7,46.0,93,83,67,30.31,30.20,15,5,19,0.00
2013-1-25,66.0,58.9,50.0,60.0,54.5,48.0,94,86,68,30.28,30.15,11,3,16,0.00
2013-1-26,69.0,61.8,55.0,62.0,57.9,53.0,94,88,77,30.22,30.14,11,3,15,0.00
2013-1-27,66.0,59.9,53.0,61.0,55.3,49.0,93,85,73,30.30,30.22,5,1,10,0.00
2013-1-28,67.0,63.5,60.0,64.0,60.6,57.0,94,90,86,30.29,30.15,10,4,17,0.00
2013-1-29,69.0,66.6,65.0,67.0,64.8,63.0,97,94,90,30.16,29.91,14,7,20,0.00
2013-1-30,73.0,64.4,49.0,71.0,61.2,40.0,97,89,70,30.03,29.63,23,12,39,0.30
2013-1-31,58.0,51.3,41.0,41.0,33.9,29.0,78,53,35,30.28,30.03,15,6,21,0.02
2013-2-1,61.0,51.2,42.0,42.0,37.0,27.0,80,59,39,30.35,30.26,11,5,18,0.00
2013-2-2,59.0,48.7,38.0,50.0,36.9,23.0,86,64,53,30.35,30.14,7,2,11,0.00
2013-2-3,65.0,56.0,48.0,51.0,44.8,33.0,88,69,32,30.22,30.07,14,5,20,0.00
2013-2-4,63.0,54.8,46.0,56.0,46.7,38.0,86,75,60,30.10,29.96,9,2,12,0.00
2013-2-5,63.0,59.1,55.0,58.0,54.7,51.0,87,86,71,30.01,29.93,7,2,11,0.34
2013-2-6,65.0,60.2,57.0,60.0,56.0,53.0,88,86,83,30.12,29.98,8,1,11,0.03
2013-2-7,75.0,64.3,59.0,64.0,59.0,55.0,88,84,65,30.01,29.75,24,4,35,0.96
2013-2-8,65.0,58.8,52.0,60.0,54.8,49.0,88,87,83,30.11,29.90,9,2,13,0.01
2013-2-9,58.0,53.8,45.0,54.0,48.1,42.0,88,81,65,30.23,30.11,5,2,9,0.01
2013-2-10,67.0,60.9,51.0,63.0,57.0,48.0,88,87,87,30.14,29.98,22,12,29,0.00
2013-2-11,69.0,64.8,58.0,65.0,60.8,54.0,88,88,87,30.07,29.99,14,7,20,0.28
2013-2-12,70.0,63.7,58.0,66.0,59.7,54.0,88,88,87,30.01,29.75,17,7,24,0.09
2013-2-13,70.0,59.1,48.0,66.0,53.0,45.0,89,81,58,30.03,29.75,14,5,21,0.07
2013-2-14,61.0,47.8,43.0,46.0,42.1,40.0,89,81,55,30.12,29.98,6,3,12,0.06
2013-2-15,60.0,51.2,40.0,48.0,43.2,37.0,90,75,53,30.13,29.99,9,4,13,0.00
2013-2-16,53.0,48.6,39.0,45.0,33.6,23.0,82,58,34,30.24,30.00,15,8,26,0.00
2013-2-17,51.0,42.1,32.0,38.0,28.3,22.0,80,59,42,30.37,30.24,9,4,13,0.00
2013-2-18,61.0,55.2,43.0,54.0,45.8,35.0,86,71,50,30.30,30.06,20,12,29,0.00
2013-2-19,69.0,61.5,48.0,60.0,50.8,32.0,88,70,42,30.16,29.99,19,8,30,0.66
2013-2-20,56.0,48.1,39.0,42.0,31.9,25.0,75,55,34,30.22,30.08,6,2,13,0.09
2013-2-21,63.0,54.4,43.0,62.0,46.0,33.0,95,74,54,30.09,29.92,9,5,15,0.00
2013-2-22,68.0,64.9,63.0,67.0,63.9,62.0,98,97,95,29.96,29.87,15,5,22,0.00
2013-2-23,69.0,63.6,57.0,68.0,62.5,55.0,98,97,94,29.91,29.75,10,5,19,0.05
2013-2-24,66.0,59.4,53.0,59.0,55.5,51.0,94,88,71,29.96,29.82,24,2,32,0.10
2013-2-25,65.0,61.2,58.0,64.0,59.7,56.0,96,94,89,29.84,29.52,19,7,56,0.20
2013-2-26,67.0,58.5,54.0,66.0,51.1,46.0,97,77,67,29.88,29.49,23,14,35,0.24
2013-2-27,59.0,54.2,47.0,50.0,45.9,43.0,87,74,59,30.00,29.87,13,5,19,0.01
2013-2-28,59.0,52.9,47.0,49.0,39.8,34.0,89,63,40,30.03,29.93,17,7,25,0.00
2013-3-1,53.0,47.6,42.0,42.0,36.3,32.0,78,65,50,30.09,29.97,12,6,20,0.00
2013-3-2,48.0,42.3,37.0,35.0,30.5,27.0,81,64,47,30.13,30.01,17,10,27,0.00
2013-3-3,51.0,42.8,36.0,33.0,28.8,26.0,77,59,39,30.16,30.06,13,7,20,0.00
2013-3-4,61.0,50.5,36.0,57.0,42.6,30.0,86,75,59,30.19,29.99,13,6,21,0.00
2013-3-5,67.0,62.6,51.0,62.0,57.4,42.0,93,84,65,30.08,29.90,18,9,29,0.00
2013-3-6,58.0,49.6,44.0,42.0,34.4,29.0,79,57,38,30.22,30.08,16,8,25,0.00
2013-3-7,56.0,47.3,36.0,47.0,37.8,30.0,86,70,51,30.29,30.18,9,4,12,0.00
2013-3-8,62.0,53.0,43.0,50.0,43.8,36.0,86,72,52,30.27,30.15,9,2,10,0.00
2013-3-9,61.0,56.3,47.0,55.0,50.3,43.0,87,81,71,30.21,30.07,13,6,18,0.00
2013-3-10,63.0,60.9,58.0,59.0,56.4,52.0,87,85,75,30.11,29.97,21,15,27,0.00
2013-3-11,65.0,59.9,51.0,62.0,56.8,45.0,94,90,82,29.97,29.77,18,10,26,0.74
2013-3-12,64.0,53.0,44.0,46.0,39.9,36.0,85,63,38,30.14,29.89,12,6,20,0.50
2013-3-13,64.0,54.9,45.0,42.0,36.9,29.0,80,54,28,30.29,30.14,15,5,28,0.01
2013-3-14,64.0,52.1,41.0,42.0,31.1,25.0,71,46,26,30.38,30.23,8,4,16,0.00
2013-3-15,63.0,55.7,45.0,54.0,45.5,36.0,80,69,43,30.28,30.13,15,6,22,0.00
2013-3-16,68.0,64.2,56.0,62.0,57.6,52.0,91,80,68,30.13,29.98,12,6,21,0.00
2013-3-17,66.0,62.6,58.0,64.0,60.8,56.0,96,94,90,30.01,29.91,13,3,18,0.00
2013-3-18,68.0,66.0,63.0,67.0,64.1,61.0,96,93,90,29.93,29.79,11,5,18,0.00
2013-3-19,70.0,64.8,60.0,67.0,60.0,51.0,95,85,71,30.01,29.85,10,2,14,0.15
2013-3-20,65.0,60.4,52.0,51.0,39.9,35.0,70,47,36,30.04,29.92,8,3,18,0.01
2013-3-21,64.0,54.5,46.0,47.0,36.1,27.0,71,51,25,30.04,29.88,10,4,20,0.00
2013-3-22,63.0,57.9,52.0,53.0,44.7,34.0,74,62,47,29.97,29.87,14,6,23,0.00
2013-3-23,68.0,63.4,61.0,66.0,57.8,47.0,96,83,55,29.88,29.58,15,3,21,0.67
2013-3-24,71.0,67.9,56.0,69.0,62.1,36.0,97,83,40,29.85,29.53,23,14,32,0.64
2013-3-25,59.0,50.6,43.0,40.0,31.3,26.0,69,50,29,30.17,29.84,20,13,31,0.01
2013-3-26,55.0,45.6,38.0,31.0,28.6,26.0,68,52,38,30.32,30.17,16,8,30,0.00
2013-3-27,55.0,46.2,35.0,43.0,33.5,27.0,79,62,43,30.39,30.24,12,4,16,0.00
2013-3-28,61.0,52.5,40.0,47.0,40.4,34.0,82,65,45,30.33,30.22,12,4,17,0.00
2013-3-29,64.0,56.8,46.0,56.0,46.9,40.0,85,70,45,30.32,30.19,9,3,14,0.00
2013-3-30,66.0,61.0,52.0,62.0,56.3,-99.9,93,88,83,30.21,30.04,11,4,15,0.00
2013-3-31,70.0,66.6,61.0,67.0,63.8,59.0,94,90,88,30.05,29.88,11,5,18,0.00
2013-4-1,75.0,68.8,62.0,66.0,59.7,54.0,92,74,50,30.00,29.88,12,6,20,0.00
2013-4-2,71.0,64.6,55.0,63.0,55.3,50.0,88,73,50,30.10,29.99,8,3,13,0.00
2013-4-3,65.0,60.9,56.0,61.0,57.2,53.0,95,88,77,30.04,29.77,17,3,28,0.78
2013-4-4,69.0,64.6,61.0,64.0,61.4,59.0,94,89,84,29.91,29.81,14,5,19,0.12
2013-4-5,64.0,58.1,55.0,60.0,52.1,49.0,93,81,60,30.06,29.84,16,7,22,0.00
2013-4-6,65.0,58.6,47.0,56.0,51.2,44.0,91,77,61,30.16,30.05,9,3,14,0.00
2013-4-7,68.0,63.2,54.0,65.0,59.6,50.0,93,88,74,30.14,30.01,10,5,16,0.00
2013-4-8,70.0,67.8,62.0,67.0,64.5,60.0,94,89,82,30.09,29.98,12,6,16,0.00
2013-4-9,72.0,69.6,68.0,67.0,64.9,62.0,90,85,75,30.10,29.97,13,8,22,0.00
2013-4-10,71.0,69.6,67.0,68.0,65.6,62.0,93,87,79,30.05,29.89,12,7,18,0.00
2013-4-11,73.0,70.7,69.0,72.0,69.0,67.0,97,95,92,29.89,29.62,31,11,51,0.28
2013-4-12,75.0,66.1,58.0,69.0,55.4,49.0,95,71,42,29.93,29.70,12,6,21,0.38
2013-4-13,72.0,65.5,55.0,60.0,52.5,47.0,78,63,46,30.02,29.86,10,3,16,0.01
2013-4-14,70.0,66.6,60.0,66.0,61.1,56.0,95,83,64,29.93,29.65,26,6,37,0.05
2013-4-15,72.0,67.3,61.0,68.0,64.6,59.0,94,90,86,30.03,29.82,8,2,13,0.06
2013-4-16,74.0,70.8,66.0,69.0,67.1,64.0,93,88,80,30.11,30.01,10,3,15,0.01
2013-4-17,75.0,72.0,69.0,69.0,67.4,65.0,95,86,77,30.12,30.01,12,5,22,0.01
2013-4-18,73.0,71.2,68.0,70.0,67.9,64.0,95,89,82,30.01,29.86,15,9,25,0.07
2013-4-19,74.0,63.1,52.0,72.0,60.5,49.0,96,91,79,30.11,29.81,18,8,29,0.01
2013-4-20,67.0,57.2,46.0,51.0,43.6,36.0,92,63,39,30.21,30.08,9,4,21,0.03
2013-4-21,71.0,61.1,49.0,56.0,48.0,42.0,79,63,45,30.18,30.08,11,3,18,0.01
2013-4-22,71.0,66.6,63.0,62.0,58.0,49.0,83,74,55,30.13,30.04,8,2,16,0.01
2013-4-23,69.0,67.2,65.0,65.0,61.4,59.0,87,82,72,30.12,30.02,16,8,22,0.01
2013-4-24,71.0,68.8,63.0,67.0,64.8,59.0,87,87,86,30.12,30.01,13,4,17,0.00
2013-4-25,78.0,68.2,61.0,67.0,60.5,46.0,87,77,49,30.22,30.09,8,3,12,0.01
2013-4-26,74.0,66.9,57.0,62.0,50.4,42.0,82,56,42,30.27,30.18,9,3,15,0.01
2013-4-27,71.0,67.8,61.0,67.0,63.2,56.0,86,85,82,30.20,30.05,13,6,18,0.00
2013-4-28,73.0,71.1,69.0,68.0,66.6,65.0,86,85,79,30.07,29.93,12,5,14,0.00
2013-4-29,74.0,70.6,67.0,69.0,66.0,63.0,87,85,78,29.96,29.87,14,4,20,0.00
2013-4-30,75.0,71.7,66.0,70.0,67.2,62.0,87,86,82,29.96,29.88,13,6,17,0.00
2013-5-1,75.0,70.9,69.0,69.0,66.4,64.0,87,85,83,29.96,29.86,16,9,30,0.03
2013-5-2,77.0,69.4,66.0,69.0,64.4,61.0,87,84,76,29.97,29.85,23,8,31,0.20
2013-5-3,70.0,67.6,65.0,65.0,63.0,61.0,87,85,80,29.90,29.77,17,3,22,0.22
2013-5-4,68.0,58.2,49.0,63.0,46.5,42.0,87,68,39,29.90,29.78,14,8,25,0.54
2013-5-5,70.0,61.0,51.0,62.0,50.2,43.0,85,69,42,29.94,29.77,21,7,30,0.05
2013-5-6,66.0,60.2,50.0,56.0,50.0,44.0,83,70,52,29.99,29.89,16,6,24,0.02
2013-5-7,71.0,66.8,60.0,62.0,58.5,54.0,82,75,62,30.01,29.91,15,6,20,0.01
2013-5-8,72.0,66.9,60.0,66.0,61.2,55.0,85,82,78,30.08,29.98,14,4,19,0.00
2013-5-9,74.0,70.2,63.0,66.0,63.4,58.0,85,79,69,30.13,30.02,9,2,12,0.00
2013-5-10,73.0,70.7,71.0,67.0,63.3,-99.9,83,81,79,30.11,29.92,21,7,26,0.00
2013-5-11,72.0,68.8,65.0,66.0,63.0,-99.9,84,83,82,30.03,29.93,10,2,13,0.13
2013-5-12,80.0,72.0,65.0,64.0,59.0,48.0,85,66,35,30.06,29.94,6,2,13,0.01
2013-5-13,78.0,66.4,55.0,55.0,46.1,39.0,74,51,26,30.22,30.06,9,3,18,0.00
2013-5-14,73.0,67.0,57.0,61.0,54.3,48.0,77,64,52,30.27,30.14,11,3,14,0.00
2013-5-15,76.0,70.1,61.0,65.0,59.8,53.0,84,71,47,30.19,30.03,9,4,15,0.00
2013-5-16,74.0,67.3,70.0,68.0,46.1,-99.9,84,82,78,30.06,29.97,15,8,18,0.00
2013-5-17,74.0,72.4,72.0,69.0,63.6,-99.9,84,84,83,30.07,29.96,12,8,17,0.00
2013-5-18,76.0,74.5,73.0,71.0,69.4,68.0,84,84,83,30.09,29.99,11,6,15,0.00
2013-5-19,77.0,75.2,73.0,71.0,70.0,68.0,85,84,81,30.04,29.97,9,5,12,0.00
2013-5-20,79.0,76.7,75.0,72.0,70.0,67.0,84,80,71,30.04,29.93,11,5,17,0.00
2013-5-21,80.0,77.3,73.0,71.0,69.3,66.0,80,76,71,29.99,29.87,11,6,14,0.00
2013-5-22,79.0,76.9,71.0,72.0,69.7,65.0,82,79,74,29.98,29.85,10,4,15,0.00
2013-5-23,86.0,78.2,71.0,74.0,69.9,65.0,83,76,50,30.00,29.91,15,5,21,0.00
2013-5-24,90.0,80.6,72.0,71.0,63.0,52.0,82,58,33,30.12,29.97,7,2,15,0.00
2013-5-25,80.0,72.9,61.0,65.0,56.4,49.0,77,57,44,30.21,30.11,10,3,14,0.00
2013-5-26,77.0,73.4,67.0,70.0,66.2,61.0,81,78,65,30.19,30.09,12,5,16,0.00
2013-5-27,79.0,75.6,68.0,71.0,67.7,62.0,82,77,66,30.16,30.05,10,4,14,0.00
2013-5-28,78.0,76.6,73.0,71.0,69.1,66.0,81,78,70,30.09,30.02,14,9,20,0.00
2013-5-29,79.0,77.7,73.0,72.0,70.2,67.0,82,78,72,30.07,29.98,21,13,27,0.00
2013-5-30,81.0,78.9,76.0,73.0,71.2,69.0,80,77,74,30.07,29.98,21,15,27,0.00
2013-5-31,80.0,78.2,77.0,72.0,71.0,70.0,81,79,77,30.06,29.97,19,13,27,0.00
2013-6-1,79.0,78.6,77.0,73.0,71.0,-99.9,82,81,77,30.01,29.93,18,11,24,0.00
2013-6-2,81.0,78.2,74.0,76.0,72.4,68.0,87,82,78,29.96,29.83,10,4,15,0.00
2013-6-3,83.0,79.1,76.0,75.0,71.8,-99.9,85,80,71,29.90,29.82,9,4,13,0.00
2013-6-4,81.0,79.8,76.0,75.0,73.8,70.0,83,82,81,29.93,29.87,14,8,19,0.00
2013-6-5,81.0,79.8,77.0,75.0,73.4,71.0,83,81,76,29.93,29.83,15,10,19,0.15
2013-6-6,87.0,79.3,73.0,72.0,70.9,68.0,84,76,60,29.88,29.66,15,3,23,0.01
2013-6-7,81.0,77.1,71.0,74.0,70.5,66.0,84,80,73,29.87,29.71,14,6,22,0.00
2013-6-8,82.0,78.8,73.0,76.0,72.5,68.0,84,81,74,29.98,29.86,10,4,16,0.00
2013-6-29,83.0,80.6,75.0,78.0,75.3,72.0,92,84,77,29.76,29.65,15,8,23,0.03
2013-6-30,82.0,78.2,73.0,77.0,73.2,70.0,93,85,76,29.74,29.66,15,3,22,0.09
2013-7-1,84.0,78.9,72.0,77.0,72.7,70.0,95,82,65,29.86,29.73,11,4,15,0.07
2013-7-2,83.0,82.1,80.0,75.0,72.0,68.0,79,72,63,29.97,29.85,9,3,12,0.00
2013-7-3,82.0,76.8,73.0,76.0,70.9,68.0,84,82,77,30.01,29.93,23,5,27,0.60
2013-7-5,77.0,73.0,71.0,72.0,68.0,66.0,85,84,83,30.08,30.01,16,3,24,2.67
2013-7-6,79.0,76.7,73.0,74.0,71.4,68.0,84,84,82,30.03,29.96,19,5,25,0.54
2013-7-7,81.0,78.6,74.0,76.0,73.1,69.0,84,84,82,30.09,30.01,11,4,15,0.04
2013-7-8,82.0,77.3,75.0,76.0,71.0,-99.9,84,83,80,30.14,30.07,9,2,11,0.01
2013-7-9,84.0,79.3,73.0,77.0,73.1,68.0,85,82,75,30.16,30.05,10,3,13,0.01
2013-7-10,88.0,77.9,76.0,77.0,70.4,-99.9,85,81,69,30.07,29.94,9,2,13,0.01
2013-7-11,79.0,76.4,74.0,74.0,71.3,69.0,85,84,83,29.98,29.86,15,1,23,0.00
2013-7-12,83.0,78.7,74.0,76.0,72.6,69.0,85,82,75,29.89,29.80,8,2,13,0.07
2013-7-13,82.0,79.0,72.0,76.0,73.1,67.0,85,82,75,29.96,29.84,15,4,20,0.47
2013-7-14,82.0,77.2,70.0,76.0,71.5,65.0,85,83,79,30.01,29.88,14,4,18,0.55
2013-7-15,85.0,79.9,76.0,77.0,73.8,70.0,85,82,70,30.11,30.00,21,6,24,3.01
2013-7-16,84.0,78.6,75.0,77.0,72.8,70.0,85,83,74,30.15,30.06,14,5,23,3.00
2013-7-17,86.0,80.4,74.0,78.0,74.1,69.0,86,81,70,30.19,30.05,10,3,15,0.02
2013-7-18,85.0,80.4,74.0,77.0,73.5,69.0,85,80,67,30.10,29.98,12,3,16,0.00
2013-7-19,82.0,79.6,76.0,76.0,73.9,71.0,85,83,77,30.05,29.93,17,6,21,0.00
2013-7-20,83.0,80.8,77.0,77.0,75.3,72.0,85,84,80,30.00,29.91,17,8,23,0.57
2013-7-21,83.0,80.5,75.0,76.0,74.4,70.0,85,82,76,30.04,29.97,19,5,26,0.22
2013-7-22,82.0,78.3,73.0,76.0,73.3,69.0,86,85,80,30.06,29.98,15,5,27,2.10
2013-7-23,86.0,80.1,72.0,78.0,74.3,68.0,86,82,73,30.01,29.90,19,6,25,1.12
2013-7-24,87.0,82.2,78.0,78.0,75.5,72.0,85,81,69,29.92,29.83,12,4,19,0.40
2013-7-25,86.0,79.4,75.0,79.0,73.7,70.0,86,83,77,29.96,29.83,15,4,18,0.12
2013-7-26,85.0,81.4,76.0,77.0,74.4,71.0,85,80,70,30.01,29.93,12,3,16,0.01
2013-7-27,83.0,80.9,78.0,78.0,74.8,72.0,85,82,71,29.94,29.88,7,1,11,0.30
2013-7-28,83.0,79.1,74.0,77.0,73.6,69.0,86,83,77,29.98,29.87,15,4,24,0.64
2013-7-29,84.0,81.8,78.0,78.0,76.1,73.0,85,83,80,30.06,29.95,9,4,15,0.02
2013-7-30,85.0,84.2,84.0,78.0,78.0,77.0,82,81,79,30.09,30.05,7,4,10,0.00
2013-7-31,85.0,82.9,78.0,78.0,76.9,72.0,85,82,76,30.07,29.96,10,2,15,0.40
2013-8-1,84.0,82.0,77.0,79.0,76.3,72.0,86,83,81,29.98,29.89,14,3,19,0.43
2013-8-2,85.0,81.8,77.0,79.0,76.2,72.0,86,83,79,29.99,29.89,9,3,15,0.04
2013-8-3,86.0,83.6,80.0,80.0,77.8,75.0,85,83,76,30.03,29.95,13,4,18,0.06
2013-8-4,92.0,83.8,78.0,80.0,76.6,72.0,85,80,57,30.03,29.92,14,3,19,0.04
2013-8-5,88.0,82.2,76.0,79.0,75.7,71.0,86,81,69,30.00,29.90,10,2,16,0.04
2013-8-6,89.0,82.1,76.0,79.0,75.1,71.0,86,80,63,29.99,29.87,9,2,16,0.56
2013-8-7,86.0,80.4,73.0,79.0,74.6,68.0,86,82,76,29.96,29.87,19,4,27,0.71
2013-8-8,85.0,81.2,77.0,78.0,75.8,72.0,85,84,73,29.96,29.89,11,2,22,0.03
2013-8-9,85.0,82.4,78.0,78.0,76.0,73.0,85,81,73,30.03,29.93,16,6,21,0.01
2013-8-10,85.0,81.9,77.0,78.0,75.5,72.0,85,81,76,30.07,29.99,12,4,16,0.01
2013-8-11,86.0,83.1,77.0,78.0,76.6,72.0,85,81,75,30.12,30.04,11,5,15,0.01
2013-8-12,86.0,81.9,78.0,79.0,76.0,73.0,85,82,67,30.08,30.00,9,2,14,0.00
2013-8-13,86.0,79.6,76.0,78.0,73.3,-99.9,86,84,77,30.01,29.91,8,1,14,1.22
2013-8-14,86.0,79.3,75.0,78.0,70.0,-99.9,86,81,72,29.94,29.85,12,2,16,0.14
2013-8-15,84.0,74.4,75.0,76.0,59.7,-99.9,86,77,73,29.95,29.87,12,2,17,0.01
2013-8-16,81.0,75.5,75.0,75.0,68.4,-99.9,86,84,83,29.98,29.88,2,0,8,0.68
2013-8-17,79.0,73.6,72.0,73.0,67.3,-99.9,85,83,76,30.01,29.90,11,2,23,4.42
2013-8-18,83.0,75.9,72.0,76.0,70.8,67.0,85,84,77,30.03,29.96,17,4,22,0.56
2013-8-19,84.0,76.1,74.0,78.0,62.7,-99.9,86,83,81,30.03,29.94,9,3,13,0.02
2013-8-20,83.0,76.4,74.0,78.0,70.6,-99.9,87,86,81,30.07,29.96,16,2,28,0.55
2013-8-21,84.0,78.0,74.0,78.0,72.8,69.0,87,84,76,30.11,30.02,12,3,17,0.11
2013-8-22,82.0,78.5,74.0,77.0,73.5,70.0,87,85,79,30.08,29.94,17,5,21,0.00
2013-8-23,81.0,77.0,74.0,76.0,72.6,70.0,87,86,84,30.01,29.91,12,2,20,0.04
2013-8-24,82.0,77.0,74.0,76.0,71.1,-99.9,87,84,80,30.09,29.96,7,1,13,0.02
2013-8-25,83.0,78.5,74.0,75.0,73.1,70.0,87,84,77,30.16,30.07,13,4,19,0.12
2013-8-26,87.0,78.6,73.0,73.0,69.1,65.0,83,73,53,30.17,30.05,12,4,17,0.08
2013-8-27,83.0,75.3,69.0,73.0,67.5,64.0,85,77,57,30.09,30.01,8,2,11,0.00
2013-8-28,85.0,83.2,81.0,75.0,73.9,72.0,77,74,69,30.02,29.95,7,3,10,0.00
2013-8-29,87.0,81.5,74.0,77.0,72.2,68.0,83,74,57,30.03,29.92,10,3,15,0.00
2013-8-30,91.0,82.3,76.0,78.0,73.8,70.0,84,76,57,29.98,29.85,11,3,15,0.00
2013-8-31,87.0,79.7,78.0,78.0,72.9,-99.9,86,82,74,29.91,29.81,11,2,18,0.00
2013-9-1,85.0,79.9,75.0,79.0,74.5,71.0,87,84,79,29.91,29.84,11,2,17,0.00
2013-9-2,85.0,80.3,76.0,78.0,74.7,71.0,87,83,75,29.96,29.86,9,1,17,0.00
2013-9-3,84.0,78.9,76.0,79.0,74.0,70.0,87,85,75,29.95,29.86,9,2,16,0.03
2013-9-4,85.0,80.6,74.0,78.0,74.8,70.0,87,83,75,30.04,29.93,9,2,12,0.01
2013-9-5,86.0,81.3,76.0,77.0,75.0,72.0,87,81,70,30.09,29.99,8,2,13,0.00
2013-9-6,87.0,82.2,75.0,75.0,72.3,69.0,87,73,60,30.06,29.94,8,1,11,0.00
2013-9-7,84.0,79.2,74.0,77.0,70.5,-99.9,85,77,67,30.02,29.93,14,3,17,0.00
2013-9-8,86.0,81.1,74.0,75.0,71.7,69.0,87,74,58,29.97,29.89,7,2,11,0.00
2013-9-9,85.0,78.4,76.0,75.0,72.3,70.0,86,82,72,30.01,29.93,4,1,8,0.00
2013-9-10,85.0,82.5,76.0,75.0,73.3,71.0,86,74,63,30.10,30.01,10,4,15,0.00
2013-9-11,87.0,80.7,74.0,75.0,72.1,69.0,85,76,64,30.10,29.98,10,2,16,0.00
2013-9-12,85.0,81.4,75.0,76.0,73.8,70.0,86,78,71,30.01,29.88,9,3,12,0.00
2013-9-13,88.0,82.0,75.0,75.0,73.0,69.0,86,75,54,29.90,29.77,9,2,14,0.00
2013-9-14,87.0,79.2,74.0,75.0,68.9,-99.9,86,73,57,29.95,29.80,9,1,11,0.00
2013-9-15,86.0,79.6,72.0,77.0,70.7,64.0,82,74,66,30.03,29.94,7,2,12,0.00
2013-9-16,85.0,80.5,75.0,78.0,74.6,71.0,87,82,75,30.05,29.96,11,2,15,0.00
2013-9-17,85.0,79.1,74.0,78.0,73.6,70.0,88,83,74,30.04,29.94,19,3,24,0.19
2013-9-18,80.0,75.1,74.0,74.0,70.9,70.0,87,86,82,30.05,30.00,5,0,13,0.20
2013-9-19,84.0,79.3,73.0,76.0,71.9,68.0,84,78,67,30.06,29.96,14,4,23,0.00
2013-9-20,84.0,80.1,73.0,78.0,74.5,69.0,87,83,78,29.99,29.84,17,8,22,0.00
2013-9-21,83.0,78.1,74.0,77.0,72.1,-99.9,88,84,79,29.84,29.70,18,6,23,1.48
2013-9-22,79.0,74.8,71.0,74.0,70.5,67.0,87,86,83,29.77,29.69,8,1,13,0.25
2013-9-23,83.0,78.1,74.0,78.0,73.6,70.0,87,86,82,29.85,29.74,13,4,16,0.40
2013-9-24,82.0,77.3,74.0,77.0,72.9,70.0,88,86,84,29.87,29.75,14,3,26,1.34
2013-9-25,88.0,78.4,73.0,78.0,72.6,69.0,88,83,60,29.78,29.70,9,2,12,0.91
2013-9-26,87.0,76.9,70.0,74.0,69.7,66.0,88,79,60,29.93,29.77,6,1,13,0.01
2013-9-27,85.0,75.0,66.0,67.0,64.2,61.0,88,71,50,30.01,29.91,11,1,15,0.00
2013-9-28,83.0,73.7,64.0,68.0,62.0,-99.9,85,69,54,30.06,29.97,10,2,16,0.00
2013-9-29,78.0,73.1,64.0,69.0,64.4,58.0,83,75,67,30.03,29.91,10,2,15,0.00
2013-9-30,80.0,74.5,68.0,72.0,68.1,62.0,87,80,73,29.97,29.89,9,2,14,0.02
2013-10-1,80.0,78.1,76.0,74.0,72.6,71.0,85,83,80,30.02,29.98,9,0,16,0.00
2013-10-2,79.0,75.3,72.0,73.0,71.1,68.0,88,86,82,30.05,29.98,9,1,16,0.38
2013-10-3,81.0,76.7,70.0,75.0,71.3,66.0,88,84,72,30.06,29.96,13,6,16,0.01
2013-10-4,82.0,79.1,73.0,77.0,74.0,69.0,88,85,75,30.05,29.97,12,5,16,0.00
2013-10-5,82.0,79.5,74.0,77.0,74.7,70.0,88,85,77,30.02,29.92,13,7,17,0.00
2013-10-6,81.0,76.3,72.0,76.0,71.9,68.0,88,86,81,29.92,29.77,17,5,21,2.15
2013-10-7,80.0,71.0,62.0,69.0,62.5,57.0,88,76,53,29.91,29.76,11,5,22,0.11
2013-10-8,79.0,69.6,58.0,69.0,61.3,53.0,86,75,65,29.96,29.88,6,2,13,0.01
2013-10-9,78.0,69.9,65.0,69.0,64.6,61.0,88,83,70,30.09,29.96,13,2,19,0.00
2013-10-10,78.0,70.3,62.0,70.0,64.6,58.0,89,83,73,30.09,29.97,8,2,11,0.00
2013-10-11,80.0,73.6,67.0,71.0,66.8,63.0,88,80,65,30.04,29.93,7,1,13,0.00
2013-10-12,83.0,74.5,68.0,72.0,65.7,-99.9,88,77,53,30.05,29.96,8,1,11,0.00
2013-10-13,86.0,76.1,66.0,68.0,63.8,61.0,88,68,45,30.12,30.02,6,1,13,0.00
2013-10-14,82.0,73.2,66.0,69.0,64.6,60.0,85,75,58,30.09,29.97,9,2,14,0.00
2013-10-15,77.0,70.5,64.0,68.0,64.6,60.0,88,82,72,30.04,29.93,12,1,17,0.00
2013-10-16,78.0,71.4,64.0,70.0,65.7,60.0,89,82,74,30.00,29.89,8,2,13,0.00
2013-10-17,80.0,74.4,69.0,74.0,69.3,65.0,88,85,74,29.95,29.85,8,2,13,0.06
2013-10-18,80.0,71.2,67.0,70.0,66.0,63.0,89,84,70,29.97,29.88,5,1,12,0.06
2013-10-19,71.0,67.2,65.0,66.0,61.7,-99.9,89,85,81,29.98,29.88,6,1,12,0.00
2013-10-20,76.0,67.2,59.0,62.0,58.9,55.0,89,76,59,30.03,29.93,6,2,12,0.00
2013-10-21,73.0,66.7,63.0,65.0,60.5,56.0,87,81,75,30.04,29.95,4,0,7,0.00
2013-10-22,75.0,69.1,65.0,67.0,63.7,59.0,89,83,69,29.97,29.86,6,1,10,0.04
2013-10-23,75.0,64.9,56.0,60.0,51.3,42.0,86,64,35,30.11,29.91,11,5,19,0.01
2013-10-24,70.0,60.4,49.0,56.0,49.1,42.0,81,67,48,30.22,30.09,5,1,9,0.00
2013-10-25,69.0,60.7,51.0,55.0,43.4,36.0,83,54,36,30.35,30.19,8,2,16,0.00
2013-10-26,67.0,54.5,44.0,51.0,39.8,-99.9,82,60,39,30.31,30.16,7,1,10,0.00
2013-10-27,69.0,60.4,49.0,60.0,50.0,42.0,84,70,47,30.18,30.08,7,1,8,0.00
2013-10-28,72.0,63.5,57.0,65.0,55.8,-99.9,88,80,66,30.22,30.10,9,1,11,0.00
2013-10-29,72.0,65.9,58.0,66.0,60.8,55.0,89,84,74,30.27,30.18,8,2,15,0.00
2013-10-30,73.0,68.3,62.0,69.0,64.5,58.0,89,88,85,30.23,30.10,11,3,18,0.00
2013-10-31,77.0,73.7,69.0,72.0,69.4,65.0,88,86,83,30.10,29.89,17,9,22,0.05
2013-11-1,77.0,72.8,66.0,73.0,69.2,63.0,89,88,86,29.88,29.77,11,4,19,0.34
2013-11-2,76.0,64.4,56.0,62.0,51.0,-99.9,89,66,40,30.08,29.87,7,3,12,0.03
2013-11-3,70.0,58.7,49.0,47.0,44.2,42.0,81,60,38,30.22,30.08,6,2,11,0.00
2013-11-4,71.0,62.8,55.0,59.0,52.2,45.0,76,69,61,30.28,30.19,11,3,19,0.00
2013-11-5,75.0,64.9,57.0,60.0,54.1,47.0,76,68,58,30.28,30.16,11,4,25,0.00
2013-11-6,71.0,66.0,61.0,67.0,60.9,54.0,88,84,72,30.18,30.06,7,2,15,0.00
2013-11-7,69.0,62.4,52.0,65.0,57.3,42.0,89,83,69,30.20,30.02,11,4,21,0.10
2013-11-8,67.0,54.9,45.0,43.0,39.6,37.0,73,58,37,30.28,30.16,6,2,15,0.10
2013-11-9,67.0,58.4,50.0,62.0,50.3,-99.9,85,77,69,30.25,30.16,10,2,18,0.00
2013-11-10,73.0,62.5,55.0,63.0,56.2,51.0,88,80,63,30.25,30.15,8,1,11,0.00
2013-11-11,70.0,60.0,53.0,56.0,50.4,46.0,81,71,51,30.23,30.12,7,1,11,0.00
2013-11-12,73.0,59.5,44.0,52.0,46.8,28.0,83,64,44,30.37,30.12,11,4,24,0.00
2013-11-13,58.0,44.8,35.0,28.0,25.3,22.0,60,47,28,30.47,30.36,11,4,22,0.00
2013-11-14,61.0,50.9,35.0,51.0,40.1,25.0,74,66,51,30.42,30.19,9,2,17,0.00
2013-11-15,66.0,61.5,57.0,62.0,57.0,50.0,89,86,74,30.20,30.02,18,7,27,0.01
2013-11-16,68.0,63.5,61.0,64.0,58.6,-99.9,89,87,86,30.12,30.01,16,5,21,0.01
2013-11-17,74.0,69.9,67.0,70.0,65.9,63.0,88,88,86,30.02,29.94,16,7,25,0.00
2013-11-18,74.0,69.0,60.0,69.0,62.7,44.0,87,81,55,30.03,29.93,8,2,13,1.67
2013-11-19,69.0,57.3,50.0,46.0,42.9,40.0,73,60,42,30.10,29.99,6,2,16,0.06
2013-11-20,64.0,56.4,50.0,57.0,48.6,42.0,80,75,69,30.15,30.05,8,3,15,0.00
2013-11-21,68.0,65.8,59.0,63.0,60.4,54.0,86,83,80,30.26,30.16,6,2,12,0.00
2013-11-22,68.0,65.1,62.0,64.0,61.1,58.0,89,87,84,30.25,30.12,9,3,16,0.00
2013-11-23,72.0,64.0,55.0,65.0,57.6,-99.9,88,82,70,30.21,30.10,9,3,17,0.00
2013-11-24,55.0,28.6,44.0,45.0,-20.9,-99.9,70,34,45,30.34,30.21,18,7,32,0.00
2013-11-25,62.0,51.9,45.0,57.0,43.3,34.0,88,72,58,30.32,29.98,20,8,25,0.11
2013-11-26,69.0,64.8,62.0,65.0,60.8,58.0,88,88,87,29.98,29.67,35,21,44,3.35